Time,TemperatureF,DewpointF,PressureIn,WindDirection,WindDirectionDegrees,WindSpeedMPH,WindSpeedGustMPH,Humidity,HourlyPrecipIn,Conditions,Clouds,dailyrainin,SoftwareType,DateUTC
2016-02-09 00:12:00,66.5,59.0,30.02,SW,227,4.0,12.0,78,0.00,,,0.00,weatherlink.com 1.10,2016-02-09 05:12:00,
2016-02-09 00:27:00,67.1,60.0,30.02,West,264,11.0,16.0,77,0.00,,,0.00,weatherlink.com 1.10,2016-02-09 05:27:00,
2016-02-09 00:42:00,67.6,61.0,30.02,West,276,12.0,17.0,78,0.00,,,0.00,weatherlink.com 1.10,2016-02-09 05:42:00,
2016-02-09 00:57:00,67.7,61.0,30.01,WSW,257,11.0,17.0,78,0.00,,,0.00,weatherlink.com 1.10,2016-02-09 05:57:00,
2016-02-09 01:12:00,68.0,61.0,30.02,WSW,250,14.0,18.0,78,0.00,,,0.00,weatherlink.com 1.10,2016-02-09 06:12:00,
2016-02-09 01:27:00,68.1,61.0,30.02,WNW,285,12.0,18.0,78,0.00,,,0.00,weatherlink.com 1.10,2016-02-09 06:27:00,
2016-02-09 01:42:00,67.4,62.0,30.01,West,266,11.0,16.0,82,0.00,,,0.00,weatherlink.com 1.10,2016-02-09 06:42:00,
2016-02-09 01:58:00,67.3,61.0,30.01,West,266,11.0,14.0,80,0.00,,,0.00,weatherlink.com 1.10,2016-02-09 06:58:00,
2016-02-09 02:13:00,67.6,60.0,30.00,West,262,13.0,15.0,76,0.00,,,0.00,weatherlink.com 1.10,2016-02-09 07:13:00,
2016-02-09 02:28:00,67.8,60.0,30.00,WSW,257,13.0,14.0,76,0.00,,,0.00,weatherlink.com 1.10,2016-02-09 07:28:00,
2016-02-09 02:58:00,67.9,60.0,29.99,West,260,9.0,15.0,75,0.00,,,0.00,weatherlink.com 1.10,2016-02-09 07:58:00,
2016-02-09 03:13:00,67.9,60.0,29.99,West,268,12.0,15.0,77,0.00,,,0.00,weatherlink.com 1.10,2016-02-09 08:13:00,
2016-02-09 03:28:00,67.8,61.0,29.99,West,265,12.0,16.0,79,0.00,,,0.00,weatherlink.com 1.10,2016-02-09 08:28:00,
2016-02-09 03:43:00,67.9,62.0,29.99,West,276,12.0,17.0,80,0.00,,,0.00,weatherlink.com 1.10,2016-02-09 08:43:00,
2016-02-09 03:58:00,67.7,62.0,30.00,WNW,289,15.0,22.0,82,0.00,,,0.00,weatherlink.com 1.10,2016-02-09 08:58:00,
2016-02-09 04:13:00,67.0,63.0,30.00,WNW,286,11.0,15.0,86,0.00,,,0.00,weatherlink.com 1.10,2016-02-09 09:13:00,
2016-02-09 04:28:00,66.9,63.0,30.01,WNW,283,11.0,13.0,88,0.00,,,0.00,weatherlink.com 1.10,2016-02-09 09:28:00,
2016-02-09 04:43:00,67.0,63.0,30.00,WNW,289,9.0,13.0,87,0.00,,,0.00,weatherlink.com 1.10,2016-02-09 09:43:00,
2016-02-09 04:58:00,67.3,62.0,30.01,WNW,299,11.0,17.0,84,0.00,,,0.00,weatherlink.com 1.10,2016-02-09 09:58:00,
2016-02-09 05:13:00,67.4,62.0,30.02,WNW,292,9.0,17.0,82,0.00,,,0.00,weatherlink.com 1.10,2016-02-09 10:13:00,
2016-02-09 05:28:00,67.3,61.0,30.02,WNW,294,14.0,16.0,81,0.00,,,0.00,weatherlink.com 1.10,2016-02-09 10:28:00,
2016-02-09 05:43:00,67.5,60.0,30.02,WNW,298,20.0,21.0,78,0.00,,,0.00,weatherlink.com 1.10,2016-02-09 10:43:00,
2016-02-09 05:58:00,67.4,60.0,30.02,WNW,290,14.0,19.0,77,0.00,,,0.00,weatherlink.com 1.10,2016-02-09 10:58:00,
2016-02-09 06:13:00,65.6,60.0,30.05,NNW,330,16.0,22.0,83,0.00,,,0.00,weatherlink.com 1.10,2016-02-09 11:13:00,
2016-02-09 06:28:00,65.5,61.0,30.05,NW,316,16.0,21.0,85,0.00,,,0.00,weatherlink.com 1.10,2016-02-09 11:28:00,
2016-02-09 07:28:00,65.3,59.0,30.08,NW,311,19.0,20.0,79,0.00,,,0.00,weatherlink.com 1.10,2016-02-09 12:28:00,
2016-02-09 07:58:00,65.2,58.0,30.09,NW,306,16.0,21.0,78,0.00,,,0.00,weatherlink.com 1.10,2016-02-09 12:58:00,
2016-02-09 08:13:00,65.2,58.0,30.10,NW,315,17.0,19.0,77,0.00,,,0.00,weatherlink.com 1.10,2016-02-09 13:13:00,
2016-02-09 08:28:00,65.3,59.0,30.10,NW,321,11.0,16.0,80,0.00,,,0.00,weatherlink.com 1.10,2016-02-09 13:28:00,
2016-02-09 08:43:00,65.3,58.0,30.11,WNW,303,14.0,16.0,76,0.00,,,0.00,weatherlink.com 1.10,2016-02-09 13:43:00,
2016-02-09 08:58:00,65.5,57.0,30.11,WNW,302,15.0,18.0,74,0.00,,,0.00,weatherlink.com 1.10,2016-02-09 13:58:00,